sensor_id;sensor_type;location;lat;lon;timestamp;pressure;altitude;pressure_sealevel;temperature;humidity
19676;BME280;39539;52.202;9.876;2023-03-03T00:01:30;101638.81;;;-0.67;100.00
19676;BME280;39539;52.202;9.876;2023-03-03T00:03:57;101633.38;;;-0.64;100.00
19676;BME280;39539;52.202;9.876;2023-03-03T00:06:23;101621.41;;;-0.79;100.00
19676;BME280;39539;52.202;9.876;2023-03-03T00:08:49;101620.00;;;-0.59;100.00
19676;BME280;39539;52.202;9.876;2023-03-03T00:11:15;101617.19;;;-0.56;100.00
19676;BME280;39539;52.202;9.876;2023-03-03T00:13:45;101621.59;;;-0.46;100.00
19676;BME280;39539;52.202;9.876;2023-03-03T00:18:45;101619.13;;;-0.47;100.00
19676;BME280;39539;52.202;9.876;2023-03-03T00:21:32;101627.78;;;-0.47;100.00
19676;BME280;39539;52.202;9.876;2023-03-03T00:26:37;101629.94;;;-0.40;100.00
19676;BME280;39539;52.202;9.876;2023-03-03T00:29:40;101620.75;;;-0.46;100.00
19676;BME280;39539;52.202;9.876;2023-03-03T00:35:02;101620.00;;;-0.59;100.00
19676;BME280;39539;52.202;9.876;2023-03-03T00:37:41;101612.72;;;-0.67;100.00
19676;BME280;39539;52.202;9.876;2023-03-03T00:40:31;101624.38;;;-0.60;100.00
19676;BME280;39539;52.202;9.876;2023-03-03T00:42:58;101619.59;;;-0.66;100.00
19676;BME280;39539;52.202;9.876;2023-03-03T00:47:53;101632.88;;;-0.69;100.00
19676;BME280;39539;52.202;9.876;2023-03-03T00:53:00;101636.50;;;-0.59;100.00
19676;BME280;39539;52.202;9.876;2023-03-03T00:55:27;101638.06;;;-0.56;100.00
19676;BME280;39539;52.202;9.876;2023-03-03T00:57:53;101627.56;;;-0.68;100.00
19676;BME280;39539;52.202;9.876;2023-03-03T01:00:18;101627.84;;;-0.59;100.00
19676;BME280;39539;52.202;9.876;2023-03-03T01:02:44;101633.81;;;-0.70;100.00
19676;BME280;39539;52.202;9.876;2023-03-03T01:05:13;101630.09;;;-0.79;100.00
19676;BME280;39539;52.202;9.876;2023-03-03T01:07:39;101638.59;;;-0.64;100.00
19676;BME280;39539;52.202;9.876;2023-03-03T01:10:04;101635.72;;;-0.72;100.00
19676;BME280;39539;52.202;9.876;2023-03-03T01:12:30;101637.78;;;-0.64;100.00
19676;BME280;39539;52.202;9.876;2023-03-03T01:14:55;101634.06;;;-0.73;100.00
19676;BME280;39539;52.202;9.876;2023-03-03T01:17:21;101636.16;;;-0.91;100.00
19676;BME280;39539;52.202;9.876;2023-03-03T01:19:46;101627.66;;;-1.06;100.00
19676;BME280;39539;52.202;9.876;2023-03-03T01:22:12;101628.56;;;-0.94;100.00
19676;BME280;39539;52.202;9.876;2023-03-03T01:24:37;101628.69;;;-0.96;100.00
19676;BME280;39539;52.202;9.876;2023-03-03T01:27:02;101629.38;;;-0.94;100.00
19676;BME280;39539;52.202;9.876;2023-03-03T01:29:28;101630.56;;;-0.98;100.00
19676;BME280;39539;52.202;9.876;2023-03-03T01:31:53;101642.88;;;-1.00;100.00
19676;BME280;39539;52.202;9.876;2023-03-03T01:34:18;101622.44;;;-1.06;100.00
19676;BME280;39539;52.202;9.876;2023-03-03T01:36:44;101637.03;;;-1.03;100.00
19676;BME280;39539;52.202;9.876;2023-03-03T01:39:10;101636.00;;;-1.01;100.00
19676;BME280;39539;52.202;9.876;2023-03-03T01:41:36;101644.13;;;-1.05;100.00
19676;BME280;39539;52.202;9.876;2023-03-03T01:44:02;101644.78;;;-1.15;100.00
19676;BME280;39539;52.202;9.876;2023-03-03T01:49:38;101630.16;;;-1.04;100.00
19676;BME280;39539;52.202;9.876;2023-03-03T01:52:10;101637.03;;;-0.91;100.00
19676;BME280;39539;52.202;9.876;2023-03-03T01:54:43;101629.00;;;-1.00;100.00
19676;BME280;39539;52.202;9.876;2023-03-03T01:57:22;101623.91;;;-1.02;100.00
19676;BME280;39539;52.202;9.876;2023-03-03T01:59:51;101626.78;;;-0.94;100.00
19676;BME280;39539;52.202;9.876;2023-03-03T02:02:18;101629.28;;;-0.92;100.00
19676;BME280;39539;52.202;9.876;2023-03-03T02:04:44;101629.94;;;-1.01;100.00
19676;BME280;39539;52.202;9.876;2023-03-03T02:07:11;101639.34;;;-1.11;100.00
19676;BME280;39539;52.202;9.876;2023-03-03T02:09:46;101652.78;;;-1.05;100.00
19676;BME280;39539;52.202;9.876;2023-03-03T02:12:15;101640.16;;;-1.11;100.00
19676;BME280;39539;52.202;9.876;2023-03-03T02:14:43;101645.38;;;-1.11;100.00
19676;BME280;39539;52.202;9.876;2023-03-03T02:17:09;101637.91;;;-1.16;100.00
19676;BME280;39539;52.202;9.876;2023-03-03T02:19:54;101648.75;;;-1.09;100.00
19676;BME280;39539;52.202;9.876;2023-03-03T02:25:41;101644.34;;;-1.08;100.00
19676;BME280;39539;52.202;9.876;2023-03-03T02:28:09;101626.50;;;-1.02;100.00
19676;BME280;39539;52.202;9.876;2023-03-03T02:30:38;101626.63;;;-1.16;100.00
19676;BME280;39539;52.202;9.876;2023-03-03T02:33:04;101635.81;;;-1.23;100.00
19676;BME280;39539;52.202;9.876;2023-03-03T02:35:33;101635.41;;;-1.30;100.00
19676;BME280;39539;52.202;9.876;2023-03-03T02:38:23;101643.66;;;-1.23;100.00
19676;BME280;39539;52.202;9.876;2023-03-03T02:40:59;101628.19;;;-1.14;100.00
19676;BME280;39539;52.202;9.876;2023-03-03T02:43:52;101616.00;;;-1.13;100.00
19676;BME280;39539;52.202;9.876;2023-03-03T02:46:15;101620.16;;;-1.23;100.00
19676;BME280;39539;52.202;9.876;2023-03-03T02:48:41;101618.31;;;-1.34;100.00
19676;BME280;39539;52.202;9.876;2023-03-03T02:51:06;101604.94;;;-1.29;100.00
19676;BME280;39539;52.202;9.876;2023-03-03T02:53:32;101603.59;;;-1.48;100.00
19676;BME280;39539;52.202;9.876;2023-03-03T02:55:57;101635.63;;;-1.33;100.00
19676;BME280;39539;52.202;9.876;2023-03-03T02:58:23;101627.91;;;-1.34;100.00
19676;BME280;39539;52.202;9.876;2023-03-03T03:00:48;101612.47;;;-1.50;100.00
19676;BME280;39539;52.202;9.876;2023-03-03T03:03:13;101621.13;;;-1.37;100.00
19676;BME280;39539;52.202;9.876;2023-03-03T03:05:39;101616.44;;;-1.45;100.00
19676;BME280;39539;52.202;9.876;2023-03-03T03:08:04;101632.16;;;-1.33;100.00
19676;BME280;39539;52.202;9.876;2023-03-03T03:10:30;101620.38;;;-1.26;100.00
19676;BME280;39539;52.202;9.876;2023-03-03T03:12:55;101614.97;;;-1.49;100.00
19676;BME280;39539;52.202;9.876;2023-03-03T03:15:20;101626.34;;;-1.50;100.00
19676;BME280;39539;52.202;9.876;2023-03-03T03:17:46;101619.97;;;-1.46;100.00
19676;BME280;39539;52.202;9.876;2023-03-03T03:20:11;101612.78;;;-1.29;100.00
19676;BME280;39539;52.202;9.876;2023-03-03T03:22:37;101620.59;;;-1.29;100.00
19676;BME280;39539;52.202;9.876;2023-03-03T03:25:02;101625.25;;;-1.09;100.00
19676;BME280;39539;52.202;9.876;2023-03-03T03:27:28;101609.13;;;-1.27;100.00
19676;BME280;39539;52.202;9.876;2023-03-03T03:29:53;101620.25;;;-1.25;100.00
19676;BME280;39539;52.202;9.876;2023-03-03T03:32:18;101609.34;;;-1.30;100.00
19676;BME280;39539;52.202;9.876;2023-03-03T03:34:44;101624.94;;;-1.04;100.00
19676;BME280;39539;52.202;9.876;2023-03-03T03:37:09;101621.28;;;-1.02;100.00
19676;BME280;39539;52.202;9.876;2023-03-03T03:39:35;101632.22;;;-0.97;100.00
19676;BME280;39539;52.202;9.876;2023-03-03T03:42:02;101633.91;;;-1.08;100.00
19676;BME280;39539;52.202;9.876;2023-03-03T03:44:27;101633.41;;;-1.14;100.00
19676;BME280;39539;52.202;9.876;2023-03-03T03:46:52;101636.09;;;-1.02;100.00
19676;BME280;39539;52.202;9.876;2023-03-03T03:49:18;101621.81;;;-1.09;100.00
19676;BME280;39539;52.202;9.876;2023-03-03T03:51:43;101614.09;;;-1.11;100.00
19676;BME280;39539;52.202;9.876;2023-03-03T03:54:09;101618.78;;;-1.03;100.00
19676;BME280;39539;52.202;9.876;2023-03-03T03:56:34;101601.78;;;-1.09;100.00
19676;BME280;39539;52.202;9.876;2023-03-03T03:59:00;101630.31;;;-0.82;100.00
19676;BME280;39539;52.202;9.876;2023-03-03T04:01:25;101622.38;;;-0.80;100.00
19676;BME280;39539;52.202;9.876;2023-03-03T04:03:52;101616.19;;;-0.79;100.00
19676;BME280;39539;52.202;9.876;2023-03-03T04:06:17;101620.94;;;-0.84;100.00
19676;BME280;39539;52.202;9.876;2023-03-03T04:08:43;101627.59;;;-0.80;100.00
19676;BME280;39539;52.202;9.876;2023-03-03T04:11:09;101634.91;;;-0.85;100.00
19676;BME280;39539;52.202;9.876;2023-03-03T04:13:34;101641.69;;;-0.83;100.00
19676;BME280;39539;52.202;9.876;2023-03-03T04:16:01;101643.09;;;-1.03;100.00
19676;BME280;39539;52.202;9.876;2023-03-03T04:18:27;101643.59;;;-0.98;100.00
19676;BME280;39539;52.202;9.876;2023-03-03T04:20:53;101650.34;;;-0.82;100.00
19676;BME280;39539;52.202;9.876;2023-03-03T04:23:19;101656.81;;;-0.75;100.00
19676;BME280;39539;52.202;9.876;2023-03-03T04:25:46;101637.63;;;-0.87;100.00
19676;BME280;39539;52.202;9.876;2023-03-03T04:28:12;101652.41;;;-0.75;100.00
19676;BME280;39539;52.202;9.876;2023-03-03T04:30:39;101650.13;;;-0.79;100.00
19676;BME280;39539;52.202;9.876;2023-03-03T04:33:04;101651.88;;;-0.67;100.00
19676;BME280;39539;52.202;9.876;2023-03-03T04:35:30;101655.69;;;-0.60;100.00
19676;BME280;39539;52.202;9.876;2023-03-03T04:37:55;101650.06;;;-0.54;100.00
19676;BME280;39539;52.202;9.876;2023-03-03T04:40:21;101643.31;;;-0.69;100.00
19676;BME280;39539;52.202;9.876;2023-03-03T04:42:46;101639.44;;;-0.63;100.00
19676;BME280;39539;52.202;9.876;2023-03-03T04:45:12;101651.66;;;-0.64;100.00
19676;BME280;39539;52.202;9.876;2023-03-03T04:47:37;101647.22;;;-0.51;100.00
19676;BME280;39539;52.202;9.876;2023-03-03T04:50:03;101626.53;;;-0.78;100.00
19676;BME280;39539;52.202;9.876;2023-03-03T04:52:28;101642.59;;;-0.71;100.00
19676;BME280;39539;52.202;9.876;2023-03-03T04:54:54;101635.78;;;-0.61;100.00
19676;BME280;39539;52.202;9.876;2023-03-03T04:57:19;101643.44;;;-0.47;100.00
19676;BME280;39539;52.202;9.876;2023-03-03T04:59:45;101651.41;;;-0.48;100.00
19676;BME280;39539;52.202;9.876;2023-03-03T05:02:10;101628.31;;;-0.54;100.00
19676;BME280;39539;52.202;9.876;2023-03-03T05:04:37;101655.22;;;-0.41;100.00
19676;BME280;39539;52.202;9.876;2023-03-03T05:07:02;101640.72;;;-0.45;100.00
19676;BME280;39539;52.202;9.876;2023-03-03T05:09:28;101655.59;;;-0.34;100.00
19676;BME280;39539;52.202;9.876;2023-03-03T05:11:54;101650.91;;;-0.53;100.00
19676;BME280;39539;52.202;9.876;2023-03-03T05:14:19;101657.31;;;-0.46;100.00
19676;BME280;39539;52.202;9.876;2023-03-03T05:16:44;101657.16;;;-0.56;100.00
19676;BME280;39539;52.202;9.876;2023-03-03T05:19:10;101636.94;;;-0.65;100.00
19676;BME280;39539;52.202;9.876;2023-03-03T05:21:35;101645.47;;;-0.63;100.00
19676;BME280;39539;52.202;9.876;2023-03-03T05:24:01;101655.28;;;-0.54;100.00
19676;BME280;39539;52.202;9.876;2023-03-03T05:26:26;101632.72;;;-0.55;100.00
19676;BME280;39539;52.202;9.876;2023-03-03T05:28:51;101649.94;;;-0.52;100.00
19676;BME280;39539;52.202;9.876;2023-03-03T05:31:17;101632.34;;;-0.61;100.00
19676;BME280;39539;52.202;9.876;2023-03-03T05:33:42;101626.56;;;-0.54;100.00
19676;BME280;39539;52.202;9.876;2023-03-03T05:36:08;101621.44;;;-0.55;100.00
19676;BME280;39539;52.202;9.876;2023-03-03T05:38:33;101626.72;;;-0.44;100.00
19676;BME280;39539;52.202;9.876;2023-03-03T05:40:59;101623.22;;;-0.32;100.00
19676;BME280;39539;52.202;9.876;2023-03-03T05:43:24;101613.75;;;-0.21;100.00
19676;BME280;39539;52.202;9.876;2023-03-03T05:45:54;101611.97;;;-0.21;100.00
19676;BME280;39539;52.202;9.876;2023-03-03T05:48:20;101615.19;;;-0.17;100.00
19676;BME280;39539;52.202;9.876;2023-03-03T05:50:46;101622.13;;;-0.05;100.00
19676;BME280;39539;52.202;9.876;2023-03-03T05:53:11;101630.56;;;-0.02;100.00
19676;BME280;39539;52.202;9.876;2023-03-03T05:55:36;101623.53;;;-0.12;100.00
19676;BME280;39539;52.202;9.876;2023-03-03T05:58:02;101623.19;;;-0.08;100.00
19676;BME280;39539;52.202;9.876;2023-03-03T06:00:27;101623.19;;;-0.08;100.00
19676;BME280;39539;52.202;9.876;2023-03-03T06:02:53;101622.13;;;-0.05;100.00
19676;BME280;39539;52.202;9.876;2023-03-03T06:05:19;101619.34;;;-0.15;100.00
19676;BME280;39539;52.202;9.876;2023-03-03T06:07:44;101621.09;;;-0.27;100.00
19676;BME280;39539;52.202;9.876;2023-03-03T06:10:10;101627.91;;;-0.13;100.00
19676;BME280;39539;52.202;9.876;2023-03-03T06:12:35;101617.94;;;-0.19;100.00
19676;BME280;39539;52.202;9.876;2023-03-03T06:15:04;101622.69;;;-0.13;100.00
19676;BME280;39539;52.202;9.876;2023-03-03T06:17:29;101638.97;;;-0.09;100.00
19676;BME280;39539;52.202;9.876;2023-03-03T06:19:54;101636.84;;;-0.04;100.00
19676;BME280;39539;52.202;9.876;2023-03-03T06:22:20;101643.41;;;0.02;100.00
19676;BME280;39539;52.202;9.876;2023-03-03T06:24:45;101669.69;;;0.11;100.00
19676;BME280;39539;52.202;9.876;2023-03-03T06:27:11;101665.63;;;0.07;100.00
19676;BME280;39539;52.202;9.876;2023-03-03T06:29:37;101677.75;;;0.08;100.00
19676;BME280;39539;52.202;9.876;2023-03-03T06:32:02;101679.31;;;0.11;100.00
19676;BME280;39539;52.202;9.876;2023-03-03T06:34:28;101677.06;;;0.06;100.00
19676;BME280;39539;52.202;9.876;2023-03-03T06:36:53;101650.75;;;-0.04;100.00
19676;BME280;39539;52.202;9.876;2023-03-03T06:39:19;101677.09;;;0.17;100.00
19676;BME280;39539;52.202;9.876;2023-03-03T06:41:44;101686.63;;;0.30;100.00
19676;BME280;39539;52.202;9.876;2023-03-03T06:44:09;101679.81;;;0.16;100.00
19676;BME280;39539;52.202;9.876;2023-03-03T06:46:36;101685.56;;;0.32;100.00
19676;BME280;39539;52.202;9.876;2023-03-03T06:49:02;101677.72;;;0.32;100.00
19676;BME280;39539;52.202;9.876;2023-03-03T06:51:36;101686.53;;;0.31;100.00
19676;BME280;39539;52.202;9.876;2023-03-03T06:54:12;101685.91;;;0.28;100.00
19676;BME280;39539;52.202;9.876;2023-03-03T06:56:38;101677.22;;;0.27;100.00
19676;BME280;39539;52.202;9.876;2023-03-03T06:59:10;101685.94;;;0.39;100.00
19676;BME280;39539;52.202;9.876;2023-03-03T07:01:37;101679.03;;;0.38;100.00
19676;BME280;39539;52.202;9.876;2023-03-03T07:06:50;101685.94;;;0.39;100.00
19676;BME280;39539;52.202;9.876;2023-03-03T07:09:22;101692.00;;;0.51;100.00
19676;BME280;39539;52.202;9.876;2023-03-03T07:11:55;101676.75;;;0.33;100.00
19676;BME280;39539;52.202;9.876;2023-03-03T07:14:24;101692.25;;;0.48;100.00
19676;BME280;39539;52.202;9.876;2023-03-03T07:16:59;101690.69;;;0.45;100.00
19676;BME280;39539;52.202;9.876;2023-03-03T07:19:35;101696.91;;;0.55;100.00
19676;BME280;39539;52.202;9.876;2023-03-03T07:24:44;101707.50;;;0.65;100.00
19676;BME280;39539;52.202;9.876;2023-03-03T07:27:26;101718.22;;;0.73;100.00
19676;BME280;39539;52.202;9.876;2023-03-03T07:29:54;101702.06;;;0.68;100.00
19676;BME280;39539;52.202;9.876;2023-03-03T07:35:01;101717.28;;;0.74;100.00
19676;BME280;39539;52.202;9.876;2023-03-03T07:37:37;101717.28;;;0.85;100.00
19676;BME280;39539;52.202;9.876;2023-03-03T07:40:25;101719.88;;;0.63;100.00
19676;BME280;39539;52.202;9.876;2023-03-03T07:42:52;101710.84;;;0.67;100.00
19676;BME280;39539;52.202;9.876;2023-03-03T07:45:34;101719.91;;;0.85;100.00
19676;BME280;39539;52.202;9.876;2023-03-03T07:48:23;101711.69;;;0.90;100.00
19676;BME280;39539;52.202;9.876;2023-03-03T07:50:49;101688.38;;;0.76;100.00
19676;BME280;39539;52.202;9.876;2023-03-03T07:53:32;101719.94;;;0.97;100.00
19676;BME280;39539;52.202;9.876;2023-03-03T07:56:00;101703.72;;;0.92;100.00
19676;BME280;39539;52.202;9.876;2023-03-03T07:58:37;101723.72;;;1.04;100.00
19676;BME280;39539;52.202;9.876;2023-03-03T08:03:53;101726.34;;;1.04;100.00
19676;BME280;39539;52.202;9.876;2023-03-03T08:11:41;101718.72;;;1.12;100.00
19676;BME280;39539;52.202;9.876;2023-03-03T08:14:14;101729.53;;;1.30;100.00
19676;BME280;39539;52.202;9.876;2023-03-03T08:16:40;101729.44;;;1.31;100.00
19676;BME280;39539;52.202;9.876;2023-03-03T08:19:06;101731.06;;;1.44;100.00
19676;BME280;39539;52.202;9.876;2023-03-03T08:21:34;101730.16;;;1.33;100.00
19676;BME280;39539;52.202;9.876;2023-03-03T08:24:00;101738.69;;;1.47;100.00
19676;BME280;39539;52.202;9.876;2023-03-03T08:26:26;101730.59;;;1.39;100.00
19676;BME280;39539;52.202;9.876;2023-03-03T08:28:52;101734.91;;;1.51;100.00
19676;BME280;39539;52.202;9.876;2023-03-03T08:31:18;101726.53;;;1.57;100.00
19676;BME280;39539;52.202;9.876;2023-03-03T08:33:45;101727.28;;;1.48;100.00
19676;BME280;39539;52.202;9.876;2023-03-03T08:36:11;101730.81;;;1.58;100.00
19676;BME280;39539;52.202;9.876;2023-03-03T08:38:37;101732.13;;;1.64;100.00
19676;BME280;39539;52.202;9.876;2023-03-03T08:41:03;101736.72;;;1.83;100.00
19676;BME280;39539;52.202;9.876;2023-03-03T08:43:28;101735.72;;;1.95;100.00
19676;BME280;39539;52.202;9.876;2023-03-03T08:45:57;101728.41;;;1.77;100.00
19676;BME280;39539;52.202;9.876;2023-03-03T08:48:24;101714.28;;;1.57;100.00
19676;BME280;39539;52.202;9.876;2023-03-03T08:50:49;101730.31;;;1.75;100.00
19676;BME280;39539;52.202;9.876;2023-03-03T08:53:16;101728.91;;;1.71;100.00
19676;BME280;39539;52.202;9.876;2023-03-03T08:55:42;101703.00;;;1.78;100.00
19676;BME280;39539;52.202;9.876;2023-03-03T08:58:08;101730.50;;;1.95;100.00
19676;BME280;39539;52.202;9.876;2023-03-03T09:00:34;101730.97;;;2.00;100.00
19676;BME280;39539;52.202;9.876;2023-03-03T09:03:00;101732.63;;;2.01;100.00
19676;BME280;39539;52.202;9.876;2023-03-03T09:05:26;101728.91;;;2.03;100.00
19676;BME280;39539;52.202;9.876;2023-03-03T09:07:53;101737.97;;;2.32;100.00
19676;BME280;39539;52.202;9.876;2023-03-03T09:10:23;101743.63;;;2.48;100.00
19676;BME280;39539;52.202;9.876;2023-03-03T09:12:52;101734.47;;;2.42;100.00
19676;BME280;39539;52.202;9.876;2023-03-03T09:17:46;101714.22;;;2.12;100.00
19676;BME280;39539;52.202;9.876;2023-03-03T09:20:22;101719.28;;;2.04;100.00
19676;BME280;39539;52.202;9.876;2023-03-03T09:22:49;101724.88;;;1.99;100.00
19676;BME280;39539;52.202;9.876;2023-03-03T09:25:26;101720.25;;;1.92;100.00
19676;BME280;39539;52.202;9.876;2023-03-03T09:27:56;101719.06;;;1.96;100.00
19676;BME280;39539;52.202;9.876;2023-03-03T09:32:50;101719.59;;;2.11;100.00
19676;BME280;39539;52.202;9.876;2023-03-03T09:35:35;101722.44;;;2.40;100.00
19676;BME280;39539;52.202;9.876;2023-03-03T09:44:18;101722.13;;;2.54;100.00
19676;BME280;39539;52.202;9.876;2023-03-03T09:47:13;101721.59;;;2.60;100.00
19676;BME280;39539;52.202;9.876;2023-03-03T09:50:17;101719.44;;;2.65;100.00
19676;BME280;39539;52.202;9.876;2023-03-03T09:58:31;101724.97;;;3.24;100.00
19676;BME280;39539;52.202;9.876;2023-03-03T10:15:31;101718.66;;;3.36;100.00
19676;BME280;39539;52.202;9.876;2023-03-03T11:06:15;101710.88;;;4.14;100.00
19676;BME280;39539;52.202;9.876;2023-03-03T11:14:12;101701.03;;;4.35;100.00
19676;BME280;39539;52.202;9.876;2023-03-03T11:19:58;101689.88;;;4.61;96.93
19676;BME280;39539;52.202;9.876;2023-03-03T11:22:53;101680.22;;;4.52;97.12
19676;BME280;39539;52.202;9.876;2023-03-03T11:25:39;101675.22;;;4.58;95.57
19676;BME280;39539;52.202;9.876;2023-03-03T11:37:14;101669.97;;;4.48;98.64
19676;BME280;39539;52.202;9.876;2023-03-03T11:39:43;101671.41;;;4.80;97.23
19676;BME280;39539;52.202;9.876;2023-03-03T11:44:50;101656.94;;;4.57;98.01
19676;BME280;39539;52.202;9.876;2023-03-03T11:47:57;101665.06;;;4.73;97.91
19676;BME280;39539;52.202;9.876;2023-03-03T11:51:01;101649.94;;;4.75;94.49
19676;BME280;39539;52.202;9.876;2023-03-03T11:53:49;101660.59;;;5.11;94.18
19676;BME280;39539;52.202;9.876;2023-03-03T11:56:23;101644.56;;;5.04;94.92
19676;BME280;39539;52.202;9.876;2023-03-03T11:59:02;101634.38;;;5.09;92.78
19676;BME280;39539;52.202;9.876;2023-03-03T12:04:36;101645.59;;;5.21;92.98
19676;BME280;39539;52.202;9.876;2023-03-03T12:12:22;101631.59;;;5.38;91.88
19676;BME280;39539;52.202;9.876;2023-03-03T12:14:56;101628.56;;;5.33;90.73
19676;BME280;39539;52.202;9.876;2023-03-03T12:23:29;101600.28;;;4.80;94.75
19676;BME280;39539;52.202;9.876;2023-03-03T12:26:24;101602.81;;;4.72;97.07
19676;BME280;39539;52.202;9.876;2023-03-03T12:34:40;101591.81;;;4.86;94.64
19676;BME280;39539;52.202;9.876;2023-03-03T12:37:20;101593.81;;;5.20;94.73
19676;BME280;39539;52.202;9.876;2023-03-03T12:40:06;101591.97;;;5.30;93.19
19676;BME280;39539;52.202;9.876;2023-03-03T12:46:10;101581.03;;;5.25;92.68
19676;BME280;39539;52.202;9.876;2023-03-03T12:48:44;101579.19;;;5.35;92.23
19676;BME280;39539;52.202;9.876;2023-03-03T12:59:30;101565.97;;;5.71;93.04
19676;BME280;39539;52.202;9.876;2023-03-03T13:02:24;101565.38;;;5.59;93.64
19676;BME280;39539;52.202;9.876;2023-03-03T13:08:00;101554.81;;;5.59;94.47
19676;BME280;39539;52.202;9.876;2023-03-03T13:13:17;101547.81;;;5.68;92.93
19676;BME280;39539;52.202;9.876;2023-03-03T13:16:01;101553.28;;;5.93;92.62
19676;BME280;39539;52.202;9.876;2023-03-03T13:21:29;101555.16;;;5.82;91.54
19676;BME280;39539;52.202;9.876;2023-03-03T13:27:23;101558.47;;;6.02;89.03
19676;BME280;39539;52.202;9.876;2023-03-03T13:32:23;101544.09;;;5.79;91.03
19676;BME280;39539;52.202;9.876;2023-03-03T13:37:47;101543.03;;;5.72;92.63
19676;BME280;39539;52.202;9.876;2023-03-03T13:40:23;101545.16;;;5.68;91.99
19676;BME280;39539;52.202;9.876;2023-03-03T13:43:02;101529.09;;;5.79;91.91
19676;BME280;39539;52.202;9.876;2023-03-03T13:45:42;101525.00;;;5.59;92.16
19676;BME280;39539;52.202;9.876;2023-03-03T13:49:01;101531.84;;;5.70;92.66
19676;BME280;39539;52.202;9.876;2023-03-03T13:56:47;101515.53;;;5.74;92.44
19676;BME280;39539;52.202;9.876;2023-03-03T14:02:13;101508.34;;;5.58;93.22
19676;BME280;39539;52.202;9.876;2023-03-03T14:04:46;101514.88;;;5.72;92.99
19676;BME280;39539;52.202;9.876;2023-03-03T14:07:47;101504.88;;;5.58;93.72
19676;BME280;39539;52.202;9.876;2023-03-03T14:10:33;101502.28;;;5.66;92.59
19676;BME280;39539;52.202;9.876;2023-03-03T14:13:12;101503.34;;;5.73;93.11
19676;BME280;39539;52.202;9.876;2023-03-03T14:21:15;101493.03;;;5.62;94.64
19676;BME280;39539;52.202;9.876;2023-03-03T14:24:19;101494.03;;;5.43;94.61
19676;BME280;39539;52.202;9.876;2023-03-03T14:26:50;101487.94;;;5.43;94.97
19676;BME280;39539;52.202;9.876;2023-03-03T14:29:28;101479.91;;;5.26;97.75
19676;BME280;39539;52.202;9.876;2023-03-03T14:31:56;101485.84;;;5.28;98.07
19676;BME280;39539;52.202;9.876;2023-03-03T14:36:51;101486.78;;;5.01;98.67
19676;BME280;39539;52.202;9.876;2023-03-03T14:39:33;101473.50;;;5.11;97.70
19676;BME280;39539;52.202;9.876;2023-03-03T14:42:02;101480.50;;;5.20;97.42
19676;BME280;39539;52.202;9.876;2023-03-03T14:44:35;101473.06;;;5.15;97.32
19676;BME280;39539;52.202;9.876;2023-03-03T14:49:35;101461.38;;;4.82;98.66
19676;BME280;39539;52.202;9.876;2023-03-03T14:52:23;101481.50;;;5.01;97.70
19676;BME280;39539;52.202;9.876;2023-03-03T14:55:29;101478.63;;;4.94;97.98
19676;BME280;39539;52.202;9.876;2023-03-03T14:57:57;101473.28;;;4.86;99.46
19676;BME280;39539;52.202;9.876;2023-03-03T15:05:27;101469.38;;;4.90;98.55
19676;BME280;39539;52.202;9.876;2023-03-03T15:10:34;101468.81;;;4.87;100.00
19676;BME280;39539;52.202;9.876;2023-03-03T15:13:30;101470.81;;;4.85;100.00
19676;BME280;39539;52.202;9.876;2023-03-03T15:18:22;101464.41;;;5.05;98.73
19676;BME280;39539;52.202;9.876;2023-03-03T15:28:44;101457.94;;;5.00;99.10
19676;BME280;39539;52.202;9.876;2023-03-03T15:34:03;101455.00;;;5.03;98.77
19676;BME280;39539;52.202;9.876;2023-03-03T15:36:50;101447.47;;;5.08;98.33
19676;BME280;39539;52.202;9.876;2023-03-03T15:39:40;101449.78;;;5.11;98.31
19676;BME280;39539;52.202;9.876;2023-03-03T15:42:22;101437.31;;;5.13;98.82
19676;BME280;39539;52.202;9.876;2023-03-03T15:45:02;101442.56;;;5.13;97.84
19676;BME280;39539;52.202;9.876;2023-03-03T15:48:06;101445.22;;;5.13;98.81
19676;BME280;39539;52.202;9.876;2023-03-03T15:50:54;101431.72;;;5.16;98.67
19676;BME280;39539;52.202;9.876;2023-03-03T15:53:44;101442.03;;;5.09;98.64
19676;BME280;39539;52.202;9.876;2023-03-03T15:56:23;101430.84;;;5.07;98.41
19676;BME280;39539;52.202;9.876;2023-03-03T15:59:19;101434.91;;;5.02;98.15
19676;BME280;39539;52.202;9.876;2023-03-03T16:04:32;101423.13;;;4.60;100.00
19676;BME280;39539;52.202;9.876;2023-03-03T16:07:45;101419.59;;;4.52;100.00
19676;BME280;39539;52.202;9.876;2023-03-03T16:18:34;101420.28;;;3.98;100.00
19676;BME280;39539;52.202;9.876;2023-03-03T16:26:31;101419.66;;;3.30;100.00
19676;BME280;39539;52.202;9.876;2023-03-03T16:31:54;101417.34;;;2.98;100.00
19676;BME280;39539;52.202;9.876;2023-03-03T16:37:17;101428.53;;;2.90;100.00
19676;BME280;39539;52.202;9.876;2023-03-03T16:40:22;101418.03;;;2.70;100.00
19676;BME280;39539;52.202;9.876;2023-03-03T16:42:47;101412.19;;;2.57;100.00
19676;BME280;39539;52.202;9.876;2023-03-03T16:50:49;101429.94;;;2.24;100.00
19676;BME280;39539;52.202;9.876;2023-03-03T16:53:54;101428.97;;;2.16;100.00
19676;BME280;39539;52.202;9.876;2023-03-03T16:56:22;101436.59;;;1.98;100.00
19676;BME280;39539;52.202;9.876;2023-03-03T17:02:23;101438.97;;;1.70;100.00
19676;BME280;39539;52.202;9.876;2023-03-03T17:07:52;101442.19;;;1.53;100.00
19676;BME280;39539;52.202;9.876;2023-03-03T17:10:27;101443.66;;;1.46;100.00
19676;BME280;39539;52.202;9.876;2023-03-03T17:18:36;101440.53;;;0.99;100.00
19676;BME280;39539;52.202;9.876;2023-03-03T17:21:09;101446.97;;;0.74;100.00
19676;BME280;39539;52.202;9.876;2023-03-03T17:23:50;101448.63;;;0.63;100.00
19676;BME280;39539;52.202;9.876;2023-03-03T17:35:13;101472.22;;;0.41;100.00
19676;BME280;39539;52.202;9.876;2023-03-03T17:45:19;101477.22;;;0.10;100.00
19676;BME280;39539;52.202;9.876;2023-03-03T17:55:59;101483.72;;;-0.18;100.00
19676;BME280;39539;52.202;9.876;2023-03-03T17:59:16;101480.41;;;-0.20;100.00